sensor_id;sensor_type;location;lat;lon;timestamp;temperature;humidity
75091;DHT22;63674;48.048;8.306;2023-06-19T00:00:05;14.00;99.90
75091;DHT22;63674;48.048;8.306;2023-06-19T00:02:41;13.90;99.90
75091;DHT22;63674;48.048;8.306;2023-06-19T00:05:11;13.80;99.90
75091;DHT22;63674;48.048;8.306;2023-06-19T00:07:40;13.80;99.90
75091;DHT22;63674;48.048;8.306;2023-06-19T00:10:09;13.80;99.90
75091;DHT22;63674;48.048;8.306;2023-06-19T00:12:37;13.80;99.90
75091;DHT22;63674;48.048;8.306;2023-06-19T00:15:07;13.70;99.90
75091;DHT22;63674;48.048;8.306;2023-06-19T00:17:37;13.70;99.90
75091;DHT22;63674;48.048;8.306;2023-06-19T00:20:08;13.80;99.90
75091;DHT22;63674;48.048;8.306;2023-06-19T00:22:37;13.80;99.90
75091;DHT22;63674;48.048;8.306;2023-06-19T00:25:06;13.80;99.90
75091;DHT22;63674;48.048;8.306;2023-06-19T00:27:35;13.80;99.90
75091;DHT22;63674;48.048;8.306;2023-06-19T00:30:06;13.70;99.90
75091;DHT22;63674;48.048;8.306;2023-06-19T00:32:35;13.70;99.90
75091;DHT22;63674;48.048;8.306;2023-06-19T00:35:16;13.80;99.90
75091;DHT22;63674;48.048;8.306;2023-06-19T00:37:46;13.90;99.90
75091;DHT22;63674;48.048;8.306;2023-06-19T00:40:21;14.10;99.90
75091;DHT22;63674;48.048;8.306;2023-06-19T00:42:55;14.30;99.90
75091;DHT22;63674;48.048;8.306;2023-06-19T00:45:24;14.50;99.90
75091;DHT22;63674;48.048;8.306;2023-06-19T00:47:54;14.60;99.90
75091;DHT22;63674;48.048;8.306;2023-06-19T00:50:25;14.70;99.90
75091;DHT22;63674;48.048;8.306;2023-06-19T00:52:54;14.90;99.90
75091;DHT22;63674;48.048;8.306;2023-06-19T00:55:22;15.10;99.90
75091;DHT22;63674;48.048;8.306;2023-06-19T00:57:54;15.30;99.90
75091;DHT22;63674;48.048;8.306;2023-06-19T01:00:23;15.70;99.90
75091;DHT22;63674;48.048;8.306;2023-06-19T01:02:52;15.90;99.90
75091;DHT22;63674;48.048;8.306;2023-06-19T01:05:21;16.20;99.90
75091;DHT22;63674;48.048;8.306;2023-06-19T01:07:58;16.40;99.90
75091;DHT22;63674;48.048;8.306;2023-06-19T01:10:32;16.40;99.90
75091;DHT22;63674;48.048;8.306;2023-06-19T01:13:08;16.50;99.90
75091;DHT22;63674;48.048;8.306;2023-06-19T01:15:42;16.50;99.90
75091;DHT22;63674;48.048;8.306;2023-06-19T01:18:11;16.50;99.90
75091;DHT22;63674;48.048;8.306;2023-06-19T01:20:40;16.60;99.90
75091;DHT22;63674;48.048;8.306;2023-06-19T01:23:11;16.50;99.90
75091;DHT22;63674;48.048;8.306;2023-06-19T01:25:40;16.60;99.90
75091;DHT22;63674;48.048;8.306;2023-06-19T01:28:10;16.50;99.90
75091;DHT22;63674;48.048;8.306;2023-06-19T01:30:41;16.50;99.90
75091;DHT22;63674;48.048;8.306;2023-06-19T01:33:14;16.40;99.90
75091;DHT22;63674;48.048;8.306;2023-06-19T01:35:46;16.30;99.90
75091;DHT22;63674;48.048;8.306;2023-06-19T01:38:19;16.40;99.90
75091;DHT22;63674;48.048;8.306;2023-06-19T01:40:49;16.50;99.90
75091;DHT22;63674;48.048;8.306;2023-06-19T01:43:18;16.50;99.90
75091;DHT22;63674;48.048;8.306;2023-06-19T01:45:47;16.50;99.90
75091;DHT22;63674;48.048;8.306;2023-06-19T01:48:16;16.50;99.90
75091;DHT22;63674;48.048;8.306;2023-06-19T01:50:45;16.50;99.90
75091;DHT22;63674;48.048;8.306;2023-06-19T01:53:15;16.40;99.90
75091;DHT22;63674;48.048;8.306;2023-06-19T01:55:45;16.30;99.90
75091;DHT22;63674;48.048;8.306;2023-06-19T01:58:13;16.30;99.90
75091;DHT22;63674;48.048;8.306;2023-06-19T02:00:42;16.30;99.90
75091;DHT22;63674;48.048;8.306;2023-06-19T02:03:10;16.20;99.90
75091;DHT22;63674;48.048;8.306;2023-06-19T02:05:39;16.20;99.90
75091;DHT22;63674;48.048;8.306;2023-06-19T02:08:08;16.30;99.90
75091;DHT22;63674;48.048;8.306;2023-06-19T02:10:38;16.40;99.90
75091;DHT22;63674;48.048;8.306;2023-06-19T02:13:06;16.50;99.90
75091;DHT22;63674;48.048;8.306;2023-06-19T02:15:35;16.50;99.90
75091;DHT22;63674;48.048;8.306;2023-06-19T02:18:04;16.60;99.90
75091;DHT22;63674;48.048;8.306;2023-06-19T02:20:33;16.50;99.90
75091;DHT22;63674;48.048;8.306;2023-06-19T02:23:01;16.60;99.90
75091;DHT22;63674;48.048;8.306;2023-06-19T02:25:30;16.70;99.90
75091;DHT22;63674;48.048;8.306;2023-06-19T02:28:00;16.70;99.90
75091;DHT22;63674;48.048;8.306;2023-06-19T02:30:30;16.70;99.90
75091;DHT22;63674;48.048;8.306;2023-06-19T02:32:59;16.80;99.90
75091;DHT22;63674;48.048;8.306;2023-06-19T02:35:27;16.70;99.90
75091;DHT22;63674;48.048;8.306;2023-06-19T02:37:56;16.80;99.90
75091;DHT22;63674;48.048;8.306;2023-06-19T02:40:24;16.80;99.90
75091;DHT22;63674;48.048;8.306;2023-06-19T02:42:53;16.90;99.90
75091;DHT22;63674;48.048;8.306;2023-06-19T02:45:23;16.90;99.90
75091;DHT22;63674;48.048;8.306;2023-06-19T02:47:51;16.90;99.90
75091;DHT22;63674;48.048;8.306;2023-06-19T02:50:20;16.80;99.90
75091;DHT22;63674;48.048;8.306;2023-06-19T02:52:49;16.70;99.90
75091;DHT22;63674;48.048;8.306;2023-06-19T02:55:18;16.70;99.90
75091;DHT22;63674;48.048;8.306;2023-06-19T02:57:47;16.60;99.90
75091;DHT22;63674;48.048;8.306;2023-06-19T03:00:15;16.50;99.90
75091;DHT22;63674;48.048;8.306;2023-06-19T03:02:46;16.20;99.90
75091;DHT22;63674;48.048;8.306;2023-06-19T03:05:16;16.10;99.90
75091;DHT22;63674;48.048;8.306;2023-06-19T03:07:44;15.90;99.90
75091;DHT22;63674;48.048;8.306;2023-06-19T03:10:13;15.80;99.90
75091;DHT22;63674;48.048;8.306;2023-06-19T03:12:41;15.90;99.90
75091;DHT22;63674;48.048;8.306;2023-06-19T03:15:10;15.80;99.90
75091;DHT22;63674;48.048;8.306;2023-06-19T03:17:39;15.80;99.90
75091;DHT22;63674;48.048;8.306;2023-06-19T03:20:10;15.70;99.90
75091;DHT22;63674;48.048;8.306;2023-06-19T03:22:39;15.80;99.90
75091;DHT22;63674;48.048;8.306;2023-06-19T03:25:08;15.80;99.90
75091;DHT22;63674;48.048;8.306;2023-06-19T03:27:37;15.80;99.90
75091;DHT22;63674;48.048;8.306;2023-06-19T03:30:06;15.80;99.90
75091;DHT22;63674;48.048;8.306;2023-06-19T03:32:36;15.80;99.90
75091;DHT22;63674;48.048;8.306;2023-06-19T03:35:05;15.90;99.90
75091;DHT22;63674;48.048;8.306;2023-06-19T03:37:35;15.90;99.90
75091;DHT22;63674;48.048;8.306;2023-06-19T03:40:05;15.90;99.90
75091;DHT22;63674;48.048;8.306;2023-06-19T03:42:36;15.80;99.90
75091;DHT22;63674;48.048;8.306;2023-06-19T03:45:06;15.90;99.90
75091;DHT22;63674;48.048;8.306;2023-06-19T03:47:35;15.80;99.90
75091;DHT22;63674;48.048;8.306;2023-06-19T03:50:05;15.70;99.90
75091;DHT22;63674;48.048;8.306;2023-06-19T03:52:48;15.70;99.90
75091;DHT22;63674;48.048;8.306;2023-06-19T03:55:17;15.70;99.90
75091;DHT22;63674;48.048;8.306;2023-06-19T03:57:46;15.60;99.90
75091;DHT22;63674;48.048;8.306;2023-06-19T04:00:15;15.60;99.90
75091;DHT22;63674;48.048;8.306;2023-06-19T04:02:45;15.60;99.90
75091;DHT22;63674;48.048;8.306;2023-06-19T04:05:14;15.60;99.90
75091;DHT22;63674;48.048;8.306;2023-06-19T04:07:43;15.70;99.90
75091;DHT22;63674;48.048;8.306;2023-06-19T04:10:13;15.70;99.90
75091;DHT22;63674;48.048;8.306;2023-06-19T04:12:42;15.70;99.90
75091;DHT22;63674;48.048;8.306;2023-06-19T04:15:12;15.80;99.90
75091;DHT22;63674;48.048;8.306;2023-06-19T04:17:41;15.80;99.90
75091;DHT22;63674;48.048;8.306;2023-06-19T04:20:10;15.90;99.90
75091;DHT22;63674;48.048;8.306;2023-06-19T04:22:40;15.80;99.90
75091;DHT22;63674;48.048;8.306;2023-06-19T04:25:10;15.90;99.90
75091;DHT22;63674;48.048;8.306;2023-06-19T04:27:40;15.80;99.90
75091;DHT22;63674;48.048;8.306;2023-06-19T04:30:09;15.90;99.90
75091;DHT22;63674;48.048;8.306;2023-06-19T04:32:39;16.00;99.90
75091;DHT22;63674;48.048;8.306;2023-06-19T04:35:09;16.00;99.90
75091;DHT22;63674;48.048;8.306;2023-06-19T04:37:38;16.00;99.90
75091;DHT22;63674;48.048;8.306;2023-06-19T04:40:07;16.10;99.90
75091;DHT22;63674;48.048;8.306;2023-06-19T04:42:39;16.10;99.90
75091;DHT22;63674;48.048;8.306;2023-06-19T04:45:08;16.10;99.90
75091;DHT22;63674;48.048;8.306;2023-06-19T04:47:37;16.20;99.90
75091;DHT22;63674;48.048;8.306;2023-06-19T04:50:20;16.20;99.90
75091;DHT22;63674;48.048;8.306;2023-06-19T04:52:49;16.30;99.90
75091;DHT22;63674;48.048;8.306;2023-06-19T04:55:19;16.30;99.90
75091;DHT22;63674;48.048;8.306;2023-06-19T04:57:49;16.40;99.90
75091;DHT22;63674;48.048;8.306;2023-06-19T05:00:18;16.40;99.90
75091;DHT22;63674;48.048;8.306;2023-06-19T05:02:49;16.50;99.90
75091;DHT22;63674;48.048;8.306;2023-06-19T05:05:18;16.60;99.90
75091;DHT22;63674;48.048;8.306;2023-06-19T05:07:50;16.60;99.90
75091;DHT22;63674;48.048;8.306;2023-06-19T05:10:19;16.70;99.90
75091;DHT22;63674;48.048;8.306;2023-06-19T05:12:49;16.70;99.90
75091;DHT22;63674;48.048;8.306;2023-06-19T05:15:18;16.70;99.90
75091;DHT22;63674;48.048;8.306;2023-06-19T05:17:47;16.80;99.90
75091;DHT22;63674;48.048;8.306;2023-06-19T05:20:16;16.80;99.90
75091;DHT22;63674;48.048;8.306;2023-06-19T05:22:45;16.80;99.90
75091;DHT22;63674;48.048;8.306;2023-06-19T05:25:14;16.80;99.90
75091;DHT22;63674;48.048;8.306;2023-06-19T05:27:43;16.80;99.90
75091;DHT22;63674;48.048;8.306;2023-06-19T05:30:13;16.90;99.90
75091;DHT22;63674;48.048;8.306;2023-06-19T05:32:42;17.00;99.90
75091;DHT22;63674;48.048;8.306;2023-06-19T05:35:14;17.10;99.90
75091;DHT22;63674;48.048;8.306;2023-06-19T05:37:43;17.20;99.90
75091;DHT22;63674;48.048;8.306;2023-06-19T05:40:11;17.20;99.90
75091;DHT22;63674;48.048;8.306;2023-06-19T05:42:40;17.30;99.90
75091;DHT22;63674;48.048;8.306;2023-06-19T05:45:09;17.40;99.90
75091;DHT22;63674;48.048;8.306;2023-06-19T05:47:40;17.40;99.90
75091;DHT22;63674;48.048;8.306;2023-06-19T05:50:10;17.50;99.90
75091;DHT22;63674;48.048;8.306;2023-06-19T05:52:38;17.50;99.90
75091;DHT22;63674;48.048;8.306;2023-06-19T05:55:10;17.70;99.90
75091;DHT22;63674;48.048;8.306;2023-06-19T05:57:39;17.80;99.90
75091;DHT22;63674;48.048;8.306;2023-06-19T06:00:09;17.80;99.90
75091;DHT22;63674;48.048;8.306;2023-06-19T06:03:03;17.90;99.90
75091;DHT22;63674;48.048;8.306;2023-06-19T06:05:32;18.00;99.90
75091;DHT22;63674;48.048;8.306;2023-06-19T06:08:02;18.00;99.90
75091;DHT22;63674;48.048;8.306;2023-06-19T06:10:31;18.10;99.90
75091;DHT22;63674;48.048;8.306;2023-06-19T06:13:00;18.10;99.90
75091;DHT22;63674;48.048;8.306;2023-06-19T06:15:28;18.20;99.90
75091;DHT22;63674;48.048;8.306;2023-06-19T06:17:57;18.20;99.90
75091;DHT22;63674;48.048;8.306;2023-06-19T06:20:27;18.30;99.90
75091;DHT22;63674;48.048;8.306;2023-06-19T06:22:56;18.30;99.90
75091;DHT22;63674;48.048;8.306;2023-06-19T06:25:25;18.20;99.90
75091;DHT22;63674;48.048;8.306;2023-06-19T06:27:53;18.20;99.90
75091;DHT22;63674;48.048;8.306;2023-06-19T06:30:22;18.20;99.90
75091;DHT22;63674;48.048;8.306;2023-06-19T06:32:52;18.10;99.90
75091;DHT22;63674;48.048;8.306;2023-06-19T06:35:20;18.00;99.90
75091;DHT22;63674;48.048;8.306;2023-06-19T06:37:50;18.10;99.90
75091;DHT22;63674;48.048;8.306;2023-06-19T06:40:19;18.20;99.90
75091;DHT22;63674;48.048;8.306;2023-06-19T06:42:48;18.30;99.90
75091;DHT22;63674;48.048;8.306;2023-06-19T06:45:17;18.40;99.90
75091;DHT22;63674;48.048;8.306;2023-06-19T06:47:45;18.30;99.90
75091;DHT22;63674;48.048;8.306;2023-06-19T06:50:14;18.60;99.90
75091;DHT22;63674;48.048;8.306;2023-06-19T06:52:43;18.70;99.90
75091;DHT22;63674;48.048;8.306;2023-06-19T06:55:13;18.80;99.90
75091;DHT22;63674;48.048;8.306;2023-06-19T06:57:41;19.30;99.90
75091;DHT22;63674;48.048;8.306;2023-06-19T07:00:11;19.40;99.90
75091;DHT22;63674;48.048;8.306;2023-06-19T07:02:41;19.30;99.90
75091;DHT22;63674;48.048;8.306;2023-06-19T07:05:10;19.30;99.90
75091;DHT22;63674;48.048;8.306;2023-06-19T07:07:38;19.20;99.90
75091;DHT22;63674;48.048;8.306;2023-06-19T07:10:08;19.10;99.90
75091;DHT22;63674;48.048;8.306;2023-06-19T07:12:46;19.10;99.90
75091;DHT22;63674;48.048;8.306;2023-06-19T07:15:16;18.90;99.90
75091;DHT22;63674;48.048;8.306;2023-06-19T07:17:44;18.80;99.90
75091;DHT22;63674;48.048;8.306;2023-06-19T07:20:14;18.90;99.90
75091;DHT22;63674;48.048;8.306;2023-06-19T07:22:43;19.00;99.90
75091;DHT22;63674;48.048;8.306;2023-06-19T07:25:13;19.20;99.90
75091;DHT22;63674;48.048;8.306;2023-06-19T07:27:42;19.30;99.90
75091;DHT22;63674;48.048;8.306;2023-06-19T07:30:13;19.50;99.90
75091;DHT22;63674;48.048;8.306;2023-06-19T07:32:43;19.80;99.90
75091;DHT22;63674;48.048;8.306;2023-06-19T07:35:12;20.60;99.90
75091;DHT22;63674;48.048;8.306;2023-06-19T07:37:41;21.40;99.90
75091;DHT22;63674;48.048;8.306;2023-06-19T07:40:10;22.10;99.90
75091;DHT22;63674;48.048;8.306;2023-06-19T07:42:40;22.50;99.90
75091;DHT22;63674;48.048;8.306;2023-06-19T07:45:13;23.30;99.90
75091;DHT22;63674;48.048;8.306;2023-06-19T07:47:41;23.50;99.90
75091;DHT22;63674;48.048;8.306;2023-06-19T07:50:10;23.60;99.90
75091;DHT22;63674;48.048;8.306;2023-06-19T07:52:40;23.50;99.90
75091;DHT22;63674;48.048;8.306;2023-06-19T07:55:09;23.20;99.90
75091;DHT22;63674;48.048;8.306;2023-06-19T07:57:37;22.70;99.90
75091;DHT22;63674;48.048;8.306;2023-06-19T08:00:07;22.20;99.90
75091;DHT22;63674;48.048;8.306;2023-06-19T08:02:41;22.60;99.90
75091;DHT22;63674;48.048;8.306;2023-06-19T08:05:11;23.20;99.90
75091;DHT22;63674;48.048;8.306;2023-06-19T08:07:39;23.50;99.90
75091;DHT22;63674;48.048;8.306;2023-06-19T08:10:09;23.80;99.90
75091;DHT22;63674;48.048;8.306;2023-06-19T08:12:41;24.00;99.00
75091;DHT22;63674;48.048;8.306;2023-06-19T08:15:11;24.00;88.30
75091;DHT22;63674;48.048;8.306;2023-06-19T08:17:42;23.60;83.50
75091;DHT22;63674;48.048;8.306;2023-06-19T08:20:11;23.70;81.60
75091;DHT22;63674;48.048;8.306;2023-06-19T08:22:40;23.60;83.70
75091;DHT22;63674;48.048;8.306;2023-06-19T08:25:09;23.60;84.90
75091;DHT22;63674;48.048;8.306;2023-06-19T08:27:37;23.70;85.10
75091;DHT22;63674;48.048;8.306;2023-06-19T08:30:07;23.90;82.30
75091;DHT22;63674;48.048;8.306;2023-06-19T08:32:36;24.30;85.30
75091;DHT22;63674;48.048;8.306;2023-06-19T08:35:06;24.30;75.20
75091;DHT22;63674;48.048;8.306;2023-06-19T08:37:35;24.50;77.30
75091;DHT22;63674;48.048;8.306;2023-06-19T08:40:05;24.70;70.80
75091;DHT22;63674;48.048;8.306;2023-06-19T08:42:36;24.90;83.10
75091;DHT22;63674;48.048;8.306;2023-06-19T08:45:08;24.90;71.70
75091;DHT22;63674;48.048;8.306;2023-06-19T08:47:37;25.30;66.10
75091;DHT22;63674;48.048;8.306;2023-06-19T08:50:08;25.60;67.70
75091;DHT22;63674;48.048;8.306;2023-06-19T08:52:37;25.90;65.40
75091;DHT22;63674;48.048;8.306;2023-06-19T08:55:06;26.10;68.30
75091;DHT22;63674;48.048;8.306;2023-06-19T08:57:37;26.10;64.70
75091;DHT22;63674;48.048;8.306;2023-06-19T09:00:07;26.30;71.20
75091;DHT22;63674;48.048;8.306;2023-06-19T09:02:40;26.60;63.80
75091;DHT22;63674;48.048;8.306;2023-06-19T09:05:16;27.00;56.80
75091;DHT22;63674;48.048;8.306;2023-06-19T09:07:55;27.10;56.10
75091;DHT22;63674;48.048;8.306;2023-06-19T09:10:26;26.50;55.00
75091;DHT22;63674;48.048;8.306;2023-06-19T09:12:59;26.10;58.80
75091;DHT22;63674;48.048;8.306;2023-06-19T09:15:31;25.60;59.60
75091;DHT22;63674;48.048;8.306;2023-06-19T09:18:01;25.30;61.10
75091;DHT22;63674;48.048;8.306;2023-06-19T09:20:33;25.20;66.30
75091;DHT22;63674;48.048;8.306;2023-06-19T09:25:44;25.30;59.30
75091;DHT22;63674;48.048;8.306;2023-06-19T09:28:19;25.30;58.50
75091;DHT22;63674;48.048;8.306;2023-06-19T09:31:09;25.40;60.80
75091;DHT22;63674;48.048;8.306;2023-06-19T09:33:40;25.80;62.40
75091;DHT22;63674;48.048;8.306;2023-06-19T09:36:10;25.70;56.80
75091;DHT22;63674;48.048;8.306;2023-06-19T09:38:39;26.10;58.90
75091;DHT22;63674;48.048;8.306;2023-06-19T09:41:08;26.40;62.50
75091;DHT22;63674;48.048;8.306;2023-06-19T09:43:38;26.80;53.20
75091;DHT22;63674;48.048;8.306;2023-06-19T09:46:10;27.00;54.10
75091;DHT22;63674;48.048;8.306;2023-06-19T09:48:42;27.20;53.60
75091;DHT22;63674;48.048;8.306;2023-06-19T09:51:18;27.00;54.10
75091;DHT22;63674;48.048;8.306;2023-06-19T09:53:48;27.00;54.40
75091;DHT22;63674;48.048;8.306;2023-06-19T09:56:18;27.30;54.50
75091;DHT22;63674;48.048;8.306;2023-06-19T09:58:51;27.50;55.60
75091;DHT22;63674;48.048;8.306;2023-06-19T10:01:21;27.50;55.50
75091;DHT22;63674;48.048;8.306;2023-06-19T10:04:02;27.70;53.30
75091;DHT22;63674;48.048;8.306;2023-06-19T10:06:41;27.30;51.70
75091;DHT22;63674;48.048;8.306;2023-06-19T10:09:11;27.60;51.90
75091;DHT22;63674;48.048;8.306;2023-06-19T10:11:50;27.70;51.00
75091;DHT22;63674;48.048;8.306;2023-06-19T10:14:20;27.80;49.50
75091;DHT22;63674;48.048;8.306;2023-06-19T10:16:49;27.80;53.70
75091;DHT22;63674;48.048;8.306;2023-06-19T10:19:21;27.60;49.00
75091;DHT22;63674;48.048;8.306;2023-06-19T10:21:54;27.40;48.30
75091;DHT22;63674;48.048;8.306;2023-06-19T10:24:25;27.40;53.60
75091;DHT22;63674;48.048;8.306;2023-06-19T10:27:00;27.60;51.80
75091;DHT22;63674;48.048;8.306;2023-06-19T10:29:38;27.50;49.80
75091;DHT22;63674;48.048;8.306;2023-06-19T10:32:15;27.60;49.30
75091;DHT22;63674;48.048;8.306;2023-06-19T10:34:45;27.60;47.80
75091;DHT22;63674;48.048;8.306;2023-06-19T10:37:17;27.90;50.00
75091;DHT22;63674;48.048;8.306;2023-06-19T10:39:45;27.70;46.50
75091;DHT22;63674;48.048;8.306;2023-06-19T10:42:14;27.60;49.00
75091;DHT22;63674;48.048;8.306;2023-06-19T10:44:42;27.60;48.10
75091;DHT22;63674;48.048;8.306;2023-06-19T10:47:11;27.70;47.30
75091;DHT22;63674;48.048;8.306;2023-06-19T10:49:40;27.40;47.90
75091;DHT22;63674;48.048;8.306;2023-06-19T10:52:09;27.60;46.10
75091;DHT22;63674;48.048;8.306;2023-06-19T10:54:39;27.80;50.00
75091;DHT22;63674;48.048;8.306;2023-06-19T10:57:08;27.70;44.20
75091;DHT22;63674;48.048;8.306;2023-06-19T10:59:36;27.80;46.80
75091;DHT22;63674;48.048;8.306;2023-06-19T11:02:06;28.00;44.70
75091;DHT22;63674;48.048;8.306;2023-06-19T11:04:37;28.20;48.20
75091;DHT22;63674;48.048;8.306;2023-06-19T11:07:07;28.30;43.40
75091;DHT22;63674;48.048;8.306;2023-06-19T11:09:36;28.20;42.80
75091;DHT22;63674;48.048;8.306;2023-06-19T11:12:07;28.00;47.80
75091;DHT22;63674;48.048;8.306;2023-06-19T11:14:37;28.20;44.60
75091;DHT22;63674;48.048;8.306;2023-06-19T11:17:08;28.20;42.50
75091;DHT22;63674;48.048;8.306;2023-06-19T11:19:37;28.20;46.10
75091;DHT22;63674;48.048;8.306;2023-06-19T11:22:09;28.60;47.30
75091;DHT22;63674;48.048;8.306;2023-06-19T11:24:43;28.70;41.80
75091;DHT22;63674;48.048;8.306;2023-06-19T11:27:23;28.60;43.50
75091;DHT22;63674;48.048;8.306;2023-06-19T11:29:58;28.70;43.90
75091;DHT22;63674;48.048;8.306;2023-06-19T11:32:31;28.70;42.90
75091;DHT22;63674;48.048;8.306;2023-06-19T11:35:05;28.80;43.70
75091;DHT22;63674;48.048;8.306;2023-06-19T11:37:36;29.00;46.40
75091;DHT22;63674;48.048;8.306;2023-06-19T11:40:05;29.00;43.90
75091;DHT22;63674;48.048;8.306;2023-06-19T11:42:47;28.90;41.30
75091;DHT22;63674;48.048;8.306;2023-06-19T11:45:17;29.00;41.70
75091;DHT22;63674;48.048;8.306;2023-06-19T11:47:46;29.10;41.70
75091;DHT22;63674;48.048;8.306;2023-06-19T11:50:15;28.90;42.10
75091;DHT22;63674;48.048;8.306;2023-06-19T11:52:44;28.70;43.90
75091;DHT22;63674;48.048;8.306;2023-06-19T11:55:13;28.20;41.40
75091;DHT22;63674;48.048;8.306;2023-06-19T11:57:42;28.00;42.40
75091;DHT22;63674;48.048;8.306;2023-06-19T12:00:16;27.80;43.60
75091;DHT22;63674;48.048;8.306;2023-06-19T12:02:45;27.90;46.50
75091;DHT22;63674;48.048;8.306;2023-06-19T12:05:15;28.10;44.80
75091;DHT22;63674;48.048;8.306;2023-06-19T12:07:44;28.20;45.30
75091;DHT22;63674;48.048;8.306;2023-06-19T12:10:12;28.40;45.20
75091;DHT22;63674;48.048;8.306;2023-06-19T12:12:41;28.50;41.60
75091;DHT22;63674;48.048;8.306;2023-06-19T12:15:09;28.60;42.50
75091;DHT22;63674;48.048;8.306;2023-06-19T12:17:39;28.60;42.30
75091;DHT22;63674;48.048;8.306;2023-06-19T12:20:09;28.50;40.30
75091;DHT22;63674;48.048;8.306;2023-06-19T12:22:40;28.30;41.00
75091;DHT22;63674;48.048;8.306;2023-06-19T12:25:09;28.30;44.20
75091;DHT22;63674;48.048;8.306;2023-06-19T12:27:38;28.10;41.60
75091;DHT22;63674;48.048;8.306;2023-06-19T12:30:08;28.10;42.00
75091;DHT22;63674;48.048;8.306;2023-06-19T12:32:38;28.30;44.20
75091;DHT22;63674;48.048;8.306;2023-06-19T12:35:08;28.20;42.80
75091;DHT22;63674;48.048;8.306;2023-06-19T12:37:36;28.00;42.30
75091;DHT22;63674;48.048;8.306;2023-06-19T12:40:06;27.80;42.30
75091;DHT22;63674;48.048;8.306;2023-06-19T12:42:38;27.70;42.00
75091;DHT22;63674;48.048;8.306;2023-06-19T12:45:07;27.50;42.70
75091;DHT22;63674;48.048;8.306;2023-06-19T12:47:37;27.40;44.60
75091;DHT22;63674;48.048;8.306;2023-06-19T12:50:07;27.50;43.60
75091;DHT22;63674;48.048;8.306;2023-06-19T12:52:38;27.60;42.90
75091;DHT22;63674;48.048;8.306;2023-06-19T12:55:07;27.50;46.50
75091;DHT22;63674;48.048;8.306;2023-06-19T12:57:36;27.60;45.10
75091;DHT22;63674;48.048;8.306;2023-06-19T13:00:07;27.60;41.40
75091;DHT22;63674;48.048;8.306;2023-06-19T13:02:40;27.30;43.20
75091;DHT22;63674;48.048;8.306;2023-06-19T13:05:10;27.10;45.00
75091;DHT22;63674;48.048;8.306;2023-06-19T13:07:39;27.20;44.40
75091;DHT22;63674;48.048;8.306;2023-06-19T13:10:08;27.40;46.70
75091;DHT22;63674;48.048;8.306;2023-06-19T13:12:37;27.00;43.00
75091;DHT22;63674;48.048;8.306;2023-06-19T13:15:07;26.90;45.80
75091;DHT22;63674;48.048;8.306;2023-06-19T13:17:36;26.70;43.80
75091;DHT22;63674;48.048;8.306;2023-06-19T13:20:07;26.60;50.10
75091;DHT22;63674;48.048;8.306;2023-06-19T13:22:37;26.40;49.00
75091;DHT22;63674;48.048;8.306;2023-06-19T13:25:06;26.50;50.40
75091;DHT22;63674;48.048;8.306;2023-06-19T13:27:35;26.40;45.50
75091;DHT22;63674;48.048;8.306;2023-06-19T13:30:05;26.30;46.60
75091;DHT22;63674;48.048;8.306;2023-06-19T13:32:35;26.30;50.60
75091;DHT22;63674;48.048;8.306;2023-06-19T13:35:07;26.20;52.10
75091;DHT22;63674;48.048;8.306;2023-06-19T13:37:37;26.20;47.70
75091;DHT22;63674;48.048;8.306;2023-06-19T13:40:07;26.10;48.90
75091;DHT22;63674;48.048;8.306;2023-06-19T13:42:37;26.10;51.80
75091;DHT22;63674;48.048;8.306;2023-06-19T13:45:06;26.10;50.70
75091;DHT22;63674;48.048;8.306;2023-06-19T13:47:35;26.00;51.90
75091;DHT22;63674;48.048;8.306;2023-06-19T13:50:06;25.80;47.70
75091;DHT22;63674;48.048;8.306;2023-06-19T13:52:36;25.70;49.90
75091;DHT22;63674;48.048;8.306;2023-06-19T13:55:05;25.60;55.70
75091;DHT22;63674;48.048;8.306;2023-06-19T13:57:34;25.40;58.00
75091;DHT22;63674;48.048;8.306;2023-06-19T14:00:05;25.30;53.50
75091;DHT22;63674;48.048;8.306;2023-06-19T14:02:38;25.10;56.10
75091;DHT22;63674;48.048;8.306;2023-06-19T14:05:09;25.00;58.90
75091;DHT22;63674;48.048;8.306;2023-06-19T14:07:40;24.80;65.30
75091;DHT22;63674;48.048;8.306;2023-06-19T14:10:09;24.50;59.00
75091;DHT22;63674;48.048;8.306;2023-06-19T14:12:38;24.60;71.90
75091;DHT22;63674;48.048;8.306;2023-06-19T14:15:07;24.70;58.50
75091;DHT22;63674;48.048;8.306;2023-06-19T14:17:37;24.70;72.00
75091;DHT22;63674;48.048;8.306;2023-06-19T14:20:06;24.70;61.50
75091;DHT22;63674;48.048;8.306;2023-06-19T14:22:38;24.80;60.10
75091;DHT22;63674;48.048;8.306;2023-06-19T14:25:08;24.90;56.50
75091;DHT22;63674;48.048;8.306;2023-06-19T14:27:37;25.10;54.70
75091;DHT22;63674;48.048;8.306;2023-06-19T14:30:06;25.40;53.40
75091;DHT22;63674;48.048;8.306;2023-06-19T14:32:36;25.60;50.50
75091;DHT22;63674;48.048;8.306;2023-06-19T14:35:06;25.80;49.50
75091;DHT22;63674;48.048;8.306;2023-06-19T14:37:36;26.20;47.50
75091;DHT22;63674;48.048;8.306;2023-06-19T14:40:07;26.40;47.40
75091;DHT22;63674;48.048;8.306;2023-06-19T14:42:36;26.60;48.30
75091;DHT22;63674;48.048;8.306;2023-06-19T14:45:05;26.60;48.70
75091;DHT22;63674;48.048;8.306;2023-06-19T14:47:35;26.60;51.90
75091;DHT22;63674;48.048;8.306;2023-06-19T14:50:04;26.50;53.20
75091;DHT22;63674;48.048;8.306;2023-06-19T14:52:35;26.50;49.80
75091;DHT22;63674;48.048;8.306;2023-06-19T14:55:05;26.60;54.20
75091;DHT22;63674;48.048;8.306;2023-06-19T14:57:36;26.90;54.10
75091;DHT22;63674;48.048;8.306;2023-06-19T15:00:05;27.10;53.70
75091;DHT22;63674;48.048;8.306;2023-06-19T15:02:35;27.00;52.60
75091;DHT22;63674;48.048;8.306;2023-06-19T15:05:07;26.90;53.20
75091;DHT22;63674;48.048;8.306;2023-06-19T15:07:38;27.00;52.40
75091;DHT22;63674;48.048;8.306;2023-06-19T15:10:07;27.10;54.10
75091;DHT22;63674;48.048;8.306;2023-06-19T15:12:36;27.10;51.40
75091;DHT22;63674;48.048;8.306;2023-06-19T15:15:05;27.00;48.20
75091;DHT22;63674;48.048;8.306;2023-06-19T15:17:34;27.20;52.10
75091;DHT22;63674;48.048;8.306;2023-06-19T15:20:04;27.20;46.80
75091;DHT22;63674;48.048;8.306;2023-06-19T15:22:35;27.30;48.00
75091;DHT22;63674;48.048;8.306;2023-06-19T15:25:06;27.40;48.20
75091;DHT22;63674;48.048;8.306;2023-06-19T15:27:35;27.50;47.70
75091;DHT22;63674;48.048;8.306;2023-06-19T15:30:05;27.40;44.50
75091;DHT22;63674;48.048;8.306;2023-06-19T15:32:34;27.20;43.70
75091;DHT22;63674;48.048;8.306;2023-06-19T15:35:03;27.10;47.80
75091;DHT22;63674;48.048;8.306;2023-06-19T15:37:33;27.30;43.70
75091;DHT22;63674;48.048;8.306;2023-06-19T15:40:01;27.40;43.00
75091;DHT22;63674;48.048;8.306;2023-06-19T15:42:32;27.40;41.60
75091;DHT22;63674;48.048;8.306;2023-06-19T15:45:00;27.40;42.40
75091;DHT22;63674;48.048;8.306;2023-06-19T15:47:29;27.60;40.40
75091;DHT22;63674;48.048;8.306;2023-06-19T15:49:59;27.60;42.10